Date,TemperatureHighF,TemperatureAvgF,TemperatureLowF,DewpointHighF,DewpointAvgF,DewpointLowF,HumidityHigh,HumidityAvg,HumidityLow,PressureMaxIn,PressureMinIn,WindSpeedMaxMPH,WindSpeedAvgMPH,GustSpeedMaxMPH,PrecipitationSumIn
2013-1-1,31,21,12,15,8,4,82,61,37,30.42,30.25,6,1,15,0.00
2013-1-2,33,23,16,12,9,4,67,53,36,30.49,30.32,8,1,19,0.00
2013-1-3,38,24,12,11,5,1,70,45,21,30.51,30.37,11,2,12,0.00
2013-1-4,49,29,16,16,10,4,64,47,23,30.39,30.14,9,1,9,0.00
2013-1-5,40,28,18,17,13,7,69,53,35,30.41,30.17,20,2,20,0.00
2013-1-6,46,29,12,17,10,3,71,49,22,30.40,30.05,8,0,8,0.00
2013-1-7,53,38,24,18,13,9,76,38,19,30.09,29.81,12,1,13,0.00
2013-1-8,51,43,24,22,18,13,72,39,26,30.19,29.80,28,5,28,0.00
2013-1-9,62,38,23,25,18,14,69,48,21,30.34,30.02,17,2,17,0.00
2013-1-10,46,31,21,20,17,11,68,55,33,30.02,29.50,27,1,27,0.00
2013-1-11,46,30,10,26,15,0,79,56,27,29.86,29.28,30,7,31,0.00
2013-1-12,14,8,4,5,2,-1,81,73,61,30.37,29.86,13,2,16,0.00
2013-1-13,15,10,3,4,1,-2,79,68,55,30.47,30.36,12,1,12,0.00
2013-1-14,15,8,3,4,0,-4,88,71,53,30.51,30.41,7,0,7,0.00
2013-1-15,32,19,1,13,3,-6,74,52,34,30.50,30.36,13,2,13,0.00
2013-1-16,54,38,24,23,18,12,62,47,29,30.40,30.24,15,2,15,0.00
2013-1-17,51,34,20,22,17,13,74,52,28,30.51,30.28,12,1,12,0.00
2013-1-18,60,42,24,17,12,8,63,31,16,30.28,30.05,28,2,30,0.00
2013-1-19,60,48,32,15,10,4,44,22,14,30.16,30.04,21,4,25,0.00
2013-1-20,47,34,22,18,14,9,72,46,27,30.32,30.07,20,2,20,0.00
2013-1-21,57,39,16,19,12,5,77,41,16,30.32,30.07,25,4,25,0.00
2013-1-22,62,49,27,18,8,-1,53,20,10,30.08,29.93,26,6,28,0.00
2013-1-23,62,44,34,14,7,-1,37,22,11,30.12,30.04,15,2,17,0.00
2013-1-24,64,47,28,30,20,10,52,36,17,30.11,29.88,41,7,43,0.00
2013-1-25,58,42,30,30,26,20,69,53,34,30.08,29.96,13,1,13,0.00
2013-1-26,53,41,29,36,28,21,83,61,41,30.03,29.71,13,1,13,0.01
2013-1-27,57,43,31,36,32,22,88,67,39,29.74,29.63,13,2,14,0.00
2013-1-28,52,35,26,30,24,17,89,65,39,29.78,29.48,28,2,28,0.00
2013-1-29,30,25,19,22,15,8,87,67,41,30.11,29.75,20,2,22,0.08
2013-1-30,40,28,13,17,12,4,77,53,36,30.11,29.96,26,4,26,0.01
2013-1-31,46,35,24,27,20,15,78,56,33,30.18,29.99,31,3,31,0.01
2013-2-1,48,36,21,25,20,16,85,57,29,30.25,30.09,38,6,40,0.00
2013-2-2,58,40,22,24,18,14,75,45,19,30.32,30.21,21,2,24,0.00
2013-2-3,54,37,24,22,17,10,72,46,17,30.25,29.89,15,1,15,0.00
2013-2-4,55,42,28,17,13,9,47,32,19,30.01,29.81,30,6,30,0.00
2013-2-5,61,46,29,25,19,15,56,35,24,30.01,29.75,21,2,21,0.00
2013-2-6,53,42,30,32,25,19,84,53,32,30.06,29.73,17,2,19,0.00
2013-2-7,48,36,25,31,21,13,84,58,28,30.17,30.04,19,2,19,0.00
2013-2-8,50,33,20,21,15,10,68,49,22,30.05,29.75,11,1,11,0.00
2013-2-9,36,29,24,28,20,12,85,68,52,29.76,29.57,17,2,17,0.01
2013-2-10,36,28,21,20,15,10,81,60,34,30.19,29.67,28,3,28,0.00
2013-2-11,28,23,17,16,13,10,78,66,55,30.21,30.12,10,1,11,0.00
2013-2-12,42,28,14,13,7,0,77,45,19,30.24,30.14,14,1,14,0.00
2013-2-13,46,36,23,17,13,8,54,39,29,30.16,29.98,31,6,33,0.00
2013-2-14,34,28,24,24,18,13,82,67,43,30.39,30.03,15,2,29,0.00
2013-2-15,42,28,17,18,14,11,79,59,30,30.47,30.33,19,3,19,0.01
2013-2-16,56,46,26,20,16,12,63,31,23,30.33,29.88,28,7,28,0.00
2013-2-17,62,47,31,18,12,6,55,26,12,29.89,29.42,33,8,33,0.00
2013-2-18,41,32,26,20,12,6,68,46,24,30.16,29.69,26,4,29,0.00
2013-2-19,40,34,25,15,14,12,61,43,35,30.15,29.89,13,2,15,0.00
2013-2-20,36,25,19,25,17,11,88,72,50,29.90,29.71,13,2,15,0.00
2013-2-21,25,20,14,20,15,10,92,83,75,30.10,29.86,12,1,12,0.15
2013-2-22,33,26,17,18,14,7,85,64,38,30.15,29.99,24,3,26,0.04
2013-2-23,45,32,18,28,17,7,87,56,36,29.99,29.66,19,3,24,0.00
2013-2-24,29,26,23,26,23,19,89,88,85,30.24,29.77,28,5,28,0.01
2013-2-25,36,24,10,20,15,6,86,72,51,30.25,29.98,16,1,16,0.11
2013-2-26,35,26,16,26,18,10,84,71,52,30.28,29.96,28,4,30,0.05
2013-2-27,35,27,16,15,11,6,71,52,34,30.39,30.28,16,2,18,0.00
2013-2-28,43,32,18,18,12,6,63,44,26,30.40,30.27,24,3,24,0.00
2013-3-1,45,36,27,24,20,15,66,51,38,30.37,30.28,14,2,15,0.00
2013-3-2,60,46,30,29,26,21,71,46,28,30.34,29.95,18,3,18,0.00
2013-3-3,63,52,42,28,26,21,53,36,24,29.95,29.50,33,7,36,0.00
2013-3-4,52,32,20,27,22,11,87,67,38,30.30,29.50,31,4,31,0.06
2013-3-5,39,26,14,23,16,7,76,65,48,30.45,30.28,10,1,10,0.02
2013-3-6,58,37,20,31,23,15,83,60,22,30.29,29.86,17,1,17,0.01
2013-3-7,63,45,28,32,27,22,76,53,25,29.97,29.81,17,2,18,0.00
2013-3-8,46,38,31,32,29,25,83,71,58,29.91,29.67,10,1,10,0.00
2013-3-9,35,31,24,30,27,18,91,84,71,30.17,29.64,27,5,27,0.14
2013-3-10,42,30,16,24,17,10,83,60,37,30.31,30.12,18,2,21,0.25
2013-3-11,52,42,31,29,23,18,89,52,33,30.14,29.87,33,8,37,0.01
2013-3-12,37,30,24,28,24,20,92,81,65,30.38,30.13,9,1,9,0.15
2013-3-13,63,44,26,36,27,21,86,57,25,30.38,30.20,22,3,23,0.00
2013-3-14,70,55,41,34,29,24,56,38,22,30.22,29.97,13,2,15,0.00
2013-3-15,74,66,52,30,28,25,39,24,18,29.97,29.60,32,8,32,0.00
2013-3-16,60,47,39,34,32,29,73,55,32,29.78,29.62,21,3,21,0.00
2013-3-17,58,45,33,32,25,17,72,47,24,29.78,29.44,40,7,40,0.00
2013-3-18,48,41,33,19,14,7,47,33,26,29.92,29.78,34,10,34,0.00
2013-3-19,53,42,29,17,11,2,58,29,15,30.33,29.90,35,6,35,0.00
2013-3-20,51,36,22,26,20,13,74,53,34,30.33,29.76,10,1,11,0.00
2013-3-21,58,45,37,36,25,13,68,46,27,29.76,29.43,31,5,33,0.01
2013-3-22,47,34,27,28,20,11,90,59,28,29.97,29.64,31,5,31,0.00
2013-3-23,26,19,13,23,15,8,89,86,74,30.40,29.96,24,5,24,0.00
2013-3-24,26,18,5,18,12,1,84,77,62,30.47,30.35,10,1,10,0.23
2013-3-25,34,23,13,16,12,7,85,64,33,30.49,30.36,11,1,11,0.02
2013-3-26,44,32,16,29,20,9,80,61,45,30.36,30.02,13,2,13,0.00
2013-3-27,53,41,28,37,30,22,83,66,46,30.12,30.02,13,2,13,0.00
2013-3-28,63,50,32,36,33,28,86,55,31,30.09,29.97,14,2,15,0.00
2013-3-29,65,52,38,35,32,29,74,48,27,30.04,29.91,34,4,34,0.00
2013-3-30,65,50,38,39,32,26,80,54,23,30.12,29.86,28,4,28,0.00
2013-3-31,68,52,35,35,29,23,83,48,20,30.11,29.82,17,3,17,0.00
2013-4-1,52,41,31,34,30,26,81,64,47,30.07,29.90,23,4,23,0.02
2013-4-2,40,37,35,34,32,31,89,83,74,30.15,30.04,13,3,13,0.24
2013-4-3,60,46,36,38,34,30,90,66,33,30.17,30.01,19,1,19,0.03
2013-4-4,67,54,38,37,32,30,76,46,25,30.08,29.84,18,2,18,0.00
2013-4-5,72,60,49,35,30,26,50,35,20,29.84,29.46,43,5,43,0.00
2013-4-6,65,54,44,35,28,23,58,37,24,29.76,29.64,28,4,31,0.00
2013-4-7,63,54,42,35,30,24,72,41,25,29.70,29.50,33,7,34,0.00
2013-4-8,63,46,25,37,31,22,87,59,35,29.75,29.23,42,6,42,0.00
2013-4-9,25,17,12,22,12,7,92,80,73,30.44,29.75,25,5,27,0.00
2013-4-10,26,19,10,16,11,4,82,69,54,30.44,30.10,14,2,15,0.02
2013-4-11,53,37,19,34,26,13,83,64,38,30.10,29.86,22,3,22,0.00
2013-4-12,59,42,32,34,30,24,80,64,28,29.95,29.81,26,3,30,0.00
2013-4-13,67,52,31,37,29,22,85,48,20,29.91,29.29,29,4,29,0.05
2013-4-14,48,42,37,38,21,12,87,45,26,29.72,29.38,48,13,48,0.21
2013-4-15,39,28,23,25,22,15,89,78,38,30.14,29.69,16,3,18,0.00
2013-4-16,32,27,22,28,24,20,95,91,85,30.15,29.97,21,4,21,0.08
2013-4-17,30,26,20,27,23,16,96,89,84,30.30,30.03,24,5,27,0.01
2013-4-18,36,27,14,16,14,9,91,60,37,30.31,30.25,15,1,15,0.11
2013-4-19,53,43,29,26,20,11,52,39,32,30.27,29.92,25,5,25,0.00
2013-4-20,57,47,34,35,30,24,76,54,36,29.92,29.80,21,2,21,0.00
2013-4-21,61,49,34,34,30,22,90,51,24,30.00,29.85,22,3,24,0.00
2013-4-22,49,34,23,36,27,20,89,78,53,30.35,29.78,24,3,26,0.00
2013-4-23,35,26,19,24,19,15,88,77,53,30.43,30.30,11,2,11,0.81
2013-4-24,55,41,25,25,20,16,74,47,24,30.31,30.17,14,2,14,0.00
2013-4-25,64,48,30,34,23,18,67,40,20,30.17,29.81,15,2,15,0.00
2013-4-26,65,56,41,32,26,22,57,34,21,30.08,29.91,10,2,15,0.00
2013-4-27,74,60,42,29,26,20,54,30,16,30.07,29.83,16,2,16,0.00
2013-4-28,80,66,48,36,25,18,42,24,11,29.84,29.57,19,2,19,0.00
2013-5-8,61,50,44,44,42,39,87,75,46,29.99,29.78,17,5,28,0.20
2013-5-9,57,50,46,44,41,38,88,73,49,30.09,29.98,8,2,21,0.55
2013-5-10,65,53,39,43,38,35,84,60,36,30.16,30.07,7,2,27,0.00
2013-5-11,67,57,46,42,39,36,73,53,35,30.25,30.05,11,3,24,0.00
2013-5-12,76,65,50,42,39,36,68,40,25,30.07,29.85,4,2,14,0.00
2013-5-13,85,73,59,44,42,37,47,33,24,29.88,29.70,8,2,20,0.00
2013-5-14,85,71,59,44,42,37,49,35,22,29.70,29.58,30,6,54,0.00
2013-5-15,81,66,56,51,45,40,76,49,27,29.70,29.55,31,3,34,0.24
2013-5-16,79,67,54,52,46,40,80,51,26,29.67,29.53,29,2,29,0.00
2013-5-17,86,71,53,49,40,26,72,39,13,29.61,29.40,26,4,26,0.00
2013-5-18,77,65,54,43,37,27,49,36,20,29.60,29.44,23,3,23,0.00
2013-5-19,63,55,51,39,36,32,58,49,33,29.60,29.56,15,1,15,0.00
2013-5-20,64,55,48,45,41,38,85,61,42,29.86,29.62,9,2,19,0.09
2013-5-21,70,57,46,42,37,34,79,50,29,29.89,29.70,5,2,19,0.00
2013-5-22,75,62,46,50,44,35,77,54,29,29.86,29.65,25,3,26,0.05
2013-5-23,70,58,48,50,46,43,85,65,43,29.90,29.73,23,3,23,0.00
2013-5-24,83,66,48,55,46,40,86,54,23,29.78,29.61,17,2,17,0.00
2013-5-25,86,72,56,55,44,28,76,42,14,29.71,29.49,17,1,17,0.00
2013-5-26,83,70,55,45,39,28,57,35,16,29.60,29.51,16,2,19,0.00
2013-5-27,81,69,52,43,36,29,53,32,16,29.56,29.41,25,2,26,0.00
2013-5-28,81,66,50,48,41,30,67,44,19,29.56,29.27,21,2,22,0.00
2013-5-29,66,56,47,50,43,33,89,64,33,29.53,29.32,33,3,33,0.44
2013-5-30,68,60,51,36,32,28,55,36,25,29.67,29.48,39,9,42,0.00
2013-5-31,70,62,55,31,25,20,37,25,17,29.79,29.63,33,9,35,0.00
2013-6-1,68,58,47,41,37,27,69,47,29,30.03,29.80,20,2,20,0.00
2013-6-2,82,65,44,42,38,32,70,40,21,30.03,29.55,19,2,19,0.00
2013-6-3,89,70,54,43,38,33,52,35,14,29.55,29.40,28,3,28,0.00
2013-6-4,72,62,50,53,48,30,83,61,28,30.00,29.59,24,4,28,0.07
2013-6-5,59,52,46,47,44,42,86,74,59,30.05,29.97,10,1,11,0.00
2013-6-6,78,62,44,50,43,40,86,55,28,30.01,29.83,13,1,13,0.00
2013-6-7,81,67,52,49,44,39,67,46,27,29.90,29.51,29,1,29,0.00
2013-6-8,75,68,61,50,44,41,58,44,33,29.78,29.45,21,3,24,0.00
2013-6-9,89,71,50,48,44,39,74,42,20,29.81,29.60,16,2,17,0.00
2013-6-10,96,82,65,50,43,39,43,27,16,29.61,29.42,23,2,23,0.00
2013-6-11,97,82,61,48,40,28,54,26,10,29.59,29.35,28,5,28,0.00
2013-6-12,91,77,59,54,40,32,55,28,17,29.74,29.57,21,3,27,0.00
2013-6-13,85,69,56,58,53,46,83,59,34,29.79,29.57,19,2,21,0.00
2013-6-14,86,77,64,52,46,41,58,35,22,29.65,29.49,35,6,35,0.00
2013-6-15,80,69,56,52,49,45,67,50,36,29.77,29.60,11,2,15,0.00
2013-6-16,85,70,57,54,47,37,78,48,21,29.85,29.74,31,2,31,0.00
2013-6-17,81,67,54,54,47,42,67,50,26,29.90,29.76,18,1,19,0.00
2013-6-18,82,68,56,55,51,47,81,56,30,29.87,29.59,32,2,35,0.00
2013-6-19,92,75,54,52,46,35,77,41,14,29.70,29.31,21,2,21,0.00
2013-6-20,89,74,57,53,42,31,71,34,17,29.58,29.39,15,1,15,0.00
2013-6-21,91,77,60,58,45,32,63,36,14,29.58,29.40,47,2,53,0.00
2013-6-22,85,70,57,52,49,45,68,48,27,29.61,29.41,17,1,18,0.00
2013-6-23,83,68,54,53,49,42,80,54,26,29.76,29.53,22,3,32,0.08
2013-6-24,88,74,59,53,45,32,67,40,18,29.65,29.42,21,2,21,0.00
2013-6-25,90,78,64,47,40,33,44,27,20,29.65,29.46,29,5,33,0.00
2013-6-26,95,80,62,50,45,42,53,32,18,29.75,29.62,17,2,17,0.00
2013-6-27,96,84,65,53,47,42,48,29,18,29.83,29.69,15,2,16,0.00
2013-6-28,91,77,63,59,54,47,70,47,32,29.91,29.72,31,4,36,0.30
2013-6-29,85,73,61,59,56,52,81,57,38,29.88,29.76,14,2,17,0.20
2013-6-30,78,69,62,58,55,53,77,63,46,29.90,29.82,19,3,21,0.00
2013-7-1,79,68,59,57,54,50,82,62,41,30.02,29.89,20,2,20,0.06
2013-7-2,82,69,55,57,52,46,90,58,33,29.99,29.84,18,1,18,0.09
2013-7-3,87,72,56,53,50,47,77,48,27,29.84,29.58,18,1,18,0.00
2013-7-4,90,76,61,54,50,47,63,41,25,29.67,29.55,23,2,26,0.00
2013-7-5,89,74,65,57,53,48,63,48,32,29.56,29.47,25,2,25,0.00
2013-7-6,90,78,68,60,53,48,61,43,27,29.62,29.50,31,3,31,0.00
2013-7-7,86,76,64,59,54,50,70,49,31,29.71,29.60,16,2,16,0.00
2013-7-8,94,79,66,59,53,44,70,44,19,29.73,29.64,36,2,36,0.00
2013-7-9,93,80,65,56,50,45,61,37,20,29.82,29.72,24,1,26,0.00
2013-7-10,90,77,62,60,54,47,67,47,28,29.84,29.65,18,1,19,0.00
2013-7-11,96,79,63,59,55,47,73,47,19,29.76,29.45,40,3,40,0.01
2013-7-12,91,76,68,63,57,51,81,54,29,29.70,29.52,34,2,34,0.05
2013-7-13,90,73,64,62,60,54,86,66,32,29.85,29.67,25,2,25,0.03
2013-7-14,80,70,60,63,59,56,88,71,47,29.93,29.76,19,2,19,0.02
2013-7-15,78,70,64,64,59,46,92,71,48,29.89,29.79,24,2,24,0.03
2013-7-16,82,70,56,56,51,46,77,52,33,29.91,29.83,26,3,26,0.01
2013-7-17,90,78,59,58,55,50,81,48,30,29.92,29.74,20,2,20,0.00
2013-7-18,92,72,65,57,54,52,66,53,31,29.82,29.67,30,4,34,0.00
2013-7-19,81,74,66,60,57,54,73,57,40,29.83,29.74,16,1,21,0.00
2013-7-20,89,73,60,60,55,52,80,57,30,29.75,29.57,18,2,29,0.00
2013-7-21,88,74,58,61,56,52,82,57,33,29.68,29.55,15,1,16,0.00
2013-7-22,92,79,61,61,54,44,80,43,26,29.64,29.54,16,1,16,0.00
2013-7-23,89,76,61,59,52,41,60,44,30,29.79,29.56,12,1,16,0.00
2013-7-24,83,73,61,63,56,47,76,56,31,29.87,29.71,25,2,25,0.00
2013-7-25,78,66,59,59,55,52,86,68,43,30.00,29.75,42,1,42,0.06
2013-7-26,84,71,59,57,53,46,81,56,29,30.02,29.83,23,1,23,0.06
2013-7-27,77,66,55,59,54,49,88,66,49,29.87,29.75,15,1,16,0.03
2013-7-28,72,63,59,60,58,56,91,83,67,29.82,29.69,13,0,13,0.02
2013-7-29,75,64,58,61,57,52,93,78,45,29.93,29.69,22,1,22,0.01
2013-7-30,88,72,58,59,54,50,83,56,29,29.97,29.84,15,1,16,0.01
2013-7-31,91,74,59,57,53,48,82,51,23,30.01,29.80,17,1,17,0.00
2013-8-1,93,75,63,59,54,47,78,52,23,29.89,29.61,27,2,27,0.00
2013-8-2,92,77,61,57,53,48,76,46,25,29.69,29.59,19,2,20,0.00
2013-8-3,89,72,62,62,57,52,87,63,30,29.95,29.67,28,2,29,0.01
2013-8-4,86,72,58,61,54,48,80,56,30,29.89,29.77,18,2,19,0.02
2013-8-5,86,73,60,58,53,49,74,52,31,29.77,29.68,28,2,28,0.01
2013-8-6,86,73,60,57,51,44,77,49,25,29.76,29.65,30,3,32,0.00
2013-8-7,74,66,60,57,53,48,83,64,48,29.81,29.71,17,1,17,0.00
2013-8-8,76,65,59,58,55,48,91,73,52,29.94,29.76,14,1,14,0.00
2013-8-9,78,66,54,53,50,47,81,58,36,29.97,29.89,21,2,21,0.00
2013-8-10,86,69,53,54,50,47,80,54,28,29.98,29.80,18,2,33,0.03
2013-8-11,81,71,59,54,51,48,74,50,33,29.90,29.81,17,1,17,0.02
2013-8-12,80,67,57,58,53,50,86,62,40,29.99,29.82,27,2,27,0.00
2013-8-13,80,67,55,54,51,47,82,59,38,29.98,29.86,24,2,24,0.01
2013-8-14,82,68,55,56,50,44,87,57,30,29.97,29.82,15,1,15,0.01
2013-8-15,86,69,54,55,49,43,76,52,26,29.89,29.80,26,0,33,0.00
2013-8-16,90,74,56,52,48,41,75,44,20,29.89,29.77,12,1,13,0.00
2013-8-17,94,77,59,54,48,37,75,42,14,29.83,29.64,12,0,12,0.00
2013-8-18,91,76,60,59,51,44,80,45,20,29.78,29.66,23,1,25,0.00
2013-8-19,96,77,59,55,49,45,68,41,20,29.77,29.63,15,1,18,0.00
2013-8-20,97,82,64,56,48,39,58,33,16,29.66,29.53,16,1,16,0.00
2013-8-21,90,76,66,59,52,46,77,47,27,29.78,29.62,22,2,22,0.01
2013-8-22,81,70,62,62,58,55,82,65,51,29.91,29.77,18,1,22,0.02
2013-8-23,86,71,62,60,56,52,80,61,34,29.89,29.64,28,2,28,0.00
2013-8-24,84,72,60,59,54,51,77,56,32,29.79,29.69,23,2,23,0.01
2013-8-25,90,75,61,57,54,51,73,50,29,29.83,29.73,23,1,23,0.01
2013-8-26,90,76,62,60,57,54,78,54,31,29.80,29.71,24,2,26,0.00
2013-8-27,89,78,64,59,57,54,75,50,31,29.79,29.65,16,1,18,0.00
2013-8-28,91,78,64,58,55,49,71,48,25,29.75,29.67,17,1,17,0.00
2013-8-29,92,79,66,56,52,50,59,41,25,29.80,29.73,18,1,20,0.00
2013-8-30,88,76,67,56,54,51,65,48,30,29.82,29.73,33,1,33,0.00
2013-8-31,90,76,65,58,53,50,67,47,27,29.77,29.67,26,2,26,0.00
2013-9-1,78,70,63,60,57,51,81,63,51,29.89,29.77,13,1,13,0.00
2013-9-2,91,75,59,60,56,51,86,56,27,29.85,29.67,12,0,12,0.00
2013-9-3,92,80,68,58,54,51,61,42,26,29.75,29.64,23,2,25,0.00
2013-9-4,90,78,66,58,55,53,68,47,30,29.82,29.72,17,1,19,0.00
2013-9-5,93,77,64,60,56,52,70,50,26,29.86,29.73,13,0,13,0.00
2013-9-6,95,78,64,57,53,48,66,44,21,29.79,29.64,26,1,26,0.00
2013-9-7,93,78,60,55,51,44,71,43,19,29.76,29.62,16,1,17,0.00
2013-9-8,89,74,60,54,52,49,70,47,28,29.68,29.50,19,1,21,0.00
2013-9-9,81,68,58,60,54,51,89,64,39,29.78,29.53,25,2,25,0.00
2013-9-10,65,60,59,58,57,56,91,89,78,30.00,29.75,13,0,13,0.02
2013-9-11,67,62,60,62,59,58,93,91,79,30.00,29.94,18,1,18,0.02
2013-9-12,64,61,59,61,58,56,94,91,85,30.06,29.96,20,2,22,0.02
2013-9-13,76,64,58,62,59,56,94,84,57,29.98,29.66,12,0,12,0.32
2013-9-14,75,65,57,61,56,51,91,75,47,29.78,29.61,24,1,25,0.05
2013-9-15,60,57,55,57,54,52,93,90,86,30.10,29.77,14,1,15,1.89
2013-9-16,74,62,54,58,54,52,92,79,55,30.08,29.82,7,0,7,0.00
2013-9-17,83,69,53,55,49,41,90,55,23,29.84,29.54,16,1,16,0.00
2013-9-18,84,70,57,53,48,43,72,48,29,29.61,29.47,29,2,37,0.00
2013-9-19,67,60,53,47,44,38,76,56,44,29.99,29.59,12,1,13,0.00
2013-9-20,73,59,47,48,45,42,89,63,35,30.02,29.84,8,0,9,0.00
2013-9-21,84,66,47,53,46,42,83,53,26,29.86,29.54,16,1,16,0.00
2013-9-22,79,65,54,52,47,42,88,55,33,29.55,29.30,33,1,33,0.07
2013-9-23,66,58,50,52,41,33,90,56,32,29.87,29.29,33,6,39,0.90
2013-9-24,78,61,44,45,38,33,73,46,26,29.96,29.63,12,1,12,0.00
2013-9-25,80,63,44,54,44,37,81,54,30,29.64,29.22,18,1,18,0.00
2013-9-26,69,58,48,48,44,38,76,61,36,29.55,29.31,11,0,12,0.00
2013-9-27,53,47,42,49,44,32,92,87,63,29.93,29.53,15,1,15,0.17
2013-9-28,68,53,37,40,33,26,75,50,28,30.08,29.93,24,2,24,0.00
2013-9-29,77,60,41,44,37,29,75,46,18,29.99,29.71,17,1,17,0.00
2013-9-30,83,69,58,48,39,30,54,35,22,29.73,29.49,21,1,22,0.00
2013-10-1,74,63,49,46,41,31,68,46,22,29.81,29.61,20,1,25,0.00
2013-10-2,76,61,46,47,43,38,82,55,28,29.79,29.64,15,1,15,0.00
2013-10-3,61,52,42,47,42,37,90,70,52,29.72,29.57,14,1,15,0.04
2013-10-4,48,38,33,45,32,24,90,78,53,30.19,29.63,24,3,25,0.42
2013-10-5,61,45,30,30,24,19,82,48,21,30.24,30.12,21,2,23,0.00
2013-10-6,69,53,37,40,30,20,67,44,28,30.18,30.07,19,1,19,0.00
2013-10-7,77,58,38,42,36,29,81,50,17,30.07,29.73,9,1,9,0.00
2013-10-8,77,62,49,43,38,30,64,43,19,29.73,29.47,15,1,16,0.00
2013-10-9,63,55,46,44,40,36,76,59,45,29.82,29.59,12,1,12,0.00
2013-10-10,59,50,44,47,43,35,93,77,63,29.80,29.39,28,1,28,0.07
2013-10-11,62,54,44,39,33,27,79,45,33,29.90,29.38,25,4,25,0.00
2013-10-12,56,47,40,42,39,36,89,75,58,30.08,29.90,15,1,15,0.00
2013-10-13,59,48,37,44,39,33,87,73,55,30.09,29.77,10,0,11,0.01
2013-10-14,52,45,40,42,37,29,89,73,56,30.12,29.71,29,2,29,0.26
2013-10-15,43,38,35,30,26,24,70,62,52,30.30,30.11,12,1,12,0.00
2013-10-16,52,40,28,32,28,24,92,64,39,30.23,30.01,10,1,10,0.00
2013-10-17,48,41,35,33,30,27,77,65,54,30.12,30.00,11,0,11,0.00
2013-10-18,44,37,31,33,29,27,95,74,53,30.21,30.04,13,1,14,0.21
2013-10-19,65,50,33,32,26,21,77,43,20,30.15,29.80,25,2,25,0.01
2013-10-20,53,43,35,36,32,25,89,67,35,30.09,29.76,16,1,16,0.28
2013-10-21,60,45,30,36,30,26,91,62,32,30.21,30.08,12,1,12,0.01
2013-10-22,64,52,36,36,32,28,75,49,33,30.14,30.00,15,1,15,0.00
2013-10-23,63,50,39,37,34,29,76,55,34,30.11,30.00,12,1,12,0.00
2013-10-24,53,43,34,39,35,30,87,74,57,30.22,30.11,11,0,11,0.00
2013-10-25,69,50,34,40,35,31,87,60,27,30.20,30.02,10,0,10,0.00
2013-10-26,62,50,38,38,34,30,76,57,35,30.25,30.02,11,0,11,0.00
2013-10-27,69,53,35,34,31,28,80,48,22,30.03,29.71,20,2,22,0.00
2013-10-28,49,37,32,34,31,29,91,79,49,30.06,29.73,15,1,15,0.01
2013-10-29,38,35,32,32,31,30,91,86,75,30.08,29.89,9,0,11,0.02
2013-10-30,43,37,33,37,33,28,92,85,75,30.00,29.83,16,1,18,0.18
2013-10-31,52,45,31,29,24,20,84,44,30,29.86,29.77,30,8,34,0.00
2013-11-1,52,43,35,32,28,24,76,55,36,30.18,29.83,12,0,13,0.00
2013-11-2,64,42,27,36,27,21,78,57,29,30.20,29.69,9,0,9,0.00
2013-11-3,67,50,36,30,26,21,71,45,18,29.72,29.41,23,3,23,0.00
2013-11-4,41,35,30,30,20,13,85,56,37,29.97,29.71,24,4,24,0.00
2013-11-5,44,35,28,25,17,9,73,50,25,30.21,29.94,30,3,30,0.00
2013-11-6,53,43,27,21,16,8,55,34,22,30.32,30.16,25,4,25,0.00
2013-11-7,57,42,26,30,24,18,75,50,29,30.37,29.97,13,1,13,0.00
2013-11-8,66,54,36,27,25,18,64,35,21,29.97,29.69,38,6,42,0.00
2013-11-9,63,47,36,35,29,23,68,51,28,30.18,29.88,13,2,13,0.00
2013-11-10,68,48,32,34,28,24,78,50,23,30.20,30.07,11,0,11,0.00
2013-11-11,66,42,30,33,27,24,90,61,23,30.65,30.11,21,2,22,0.00
2013-11-12,59,41,29,35,30,24,91,68,37,30.64,30.37,8,0,8,0.01
2013-11-13,70,50,30,28,24,18,85,41,17,30.37,29.90,16,1,16,0.00
2013-11-14,57,50,39,34,31,25,68,48,29,29.95,29.63,17,2,17,0.00
2013-11-15,64,48,33,30,25,19,77,45,19,29.63,29.36,23,2,23,0.00
2013-11-16,59,49,39,32,23,17,65,38,24,29.45,29.16,33,10,34,0.00
2013-11-17,56,45,35,28,21,17,69,39,24,30.00,29.44,36,9,42,0.00
2013-11-18,65,44,26,25,20,13,66,42,18,30.12,29.97,15,1,15,0.00
2013-11-19,61,49,31,31,24,17,62,39,23,29.98,29.63,33,6,34,0.00
2013-11-20,59,50,27,30,28,21,80,43,30,29.94,29.60,26,2,28,0.00
2013-11-21,27,17,14,23,12,7,92,80,73,30.83,29.94,13,2,21,0.00
2013-11-22,34,26,18,20,15,5,77,64,36,30.82,30.68,13,1,13,0.05
2013-11-23,34,28,25,22,20,6,85,69,38,30.76,30.42,8,0,8,0.01
2013-11-24,40,29,22,27,22,16,88,74,44,30.42,30.08,13,0,14,0.00
2013-11-25,44,36,29,28,23,18,80,59,40,30.35,30.13,16,2,16,0.00
2013-11-26,50,37,25,28,22,18,89,58,29,30.48,30.27,12,1,12,0.00
2013-11-27,66,42,23,29,22,17,84,50,22,30.27,30.02,11,1,13,0.00
2013-11-28,46,35,27,28,25,20,82,66,47,30.19,30.11,10,1,10,0.00
2013-11-29,62,44,27,28,24,20,88,50,23,30.18,30.07,17,2,18,0.00
2013-11-30,60,44,31,24,19,17,59,39,21,30.11,30.02,18,2,19,0.00
2013-12-1,57,44,30,26,21,16,69,43,20,30.11,29.81,28,3,28,0.00
2013-12-2,59,54,46,27,24,20,44,32,23,29.83,29.38,35,7,35,0.00
2013-12-3,55,36,12,30,19,7,87,54,30,29.78,29.29,29,4,30,0.00
2013-12-4,12,7,0,7,2,-6,85,80,72,30.43,29.77,15,2,15,0.00
2013-12-5,5,2,-4,0,-4,-9,86,76,67,30.54,30.40,14,1,14,0.00
2013-12-6,6,1,-6,-1,-4,-10,89,78,69,30.67,30.53,10,1,10,0.00
2013-12-7,8,2,-6,2,-3,-10,88,80,70,30.64,30.19,12,0,13,0.00
2013-12-8,18,9,1,9,3,-2,90,78,65,30.37,30.10,10,0,10,0.00
2013-12-9,28,14,-2,5,-1,-7,85,54,26,30.45,30.33,35,4,35,0.00
2013-12-10,45,35,21,17,12,2,63,38,30,30.40,30.00,39,10,40,0.00
2013-12-11,29,21,13,18,13,8,85,71,59,30.52,30.30,11,1,11,0.00
2013-12-12,52,30,12,24,17,9,90,62,31,30.51,30.05,6,0,7,0.00
2013-12-13,49,33,17,22,16,10,85,55,21,30.23,29.91,16,1,16,0.00
2013-12-14,47,36,21,20,16,11,82,48,24,30.33,30.18,25,2,25,0.00
2013-12-15,57,49,37,23,19,11,44,31,19,30.19,30.00,36,8,36,0.00
2013-12-16,63,54,44,21,16,6,31,22,14,30.09,29.94,28,6,30,0.00
2013-12-17,64,49,30,24,18,15,54,32,17,30.23,29.96,28,4,28,0.00
2013-12-18,66,59,49,20,13,6,29,17,10,29.95,29.49,28,5,28,0.00
2013-12-19,48,34,16,25,20,12,91,59,29,29.92,29.43,18,2,18,0.00
2013-12-20,24,20,16,19,16,12,93,86,80,29.94,29.83,9,0,10,0.00
2013-12-21,31,22,13,24,18,9,95,84,59,30.08,29.76,14,1,14,0.00
2013-12-22,42,28,16,22,18,13,95,67,35,30.35,30.07,18,1,23,0.03
2013-12-23,47,29,17,26,20,13,92,70,40,30.42,30.21,24,1,24,0.00
2013-12-24,54,43,26,30,21,11,60,43,30,30.24,29.95,34,7,35,0.00
2013-12-25,44,31,17,15,12,8,84,48,24,30.48,30.23,19,2,20,0.00
2013-12-26,52,44,27,18,13,1,62,30,18,30.31,30.20,24,3,24,0.00
2013-12-27,60,42,27,26,21,16,61,45,26,30.28,30.02,8,1,8,0.00
2013-12-28,57,36,20,26,22,15,86,59,26,30.28,29.81,20,3,20,0.00
2013-12-29,41,27,17,19,14,10,83,61,30,30.32,30.03,25,2,29,0.04
2013-12-30,49,39,28,17,15,11,55,38,27,30.27,30.07,25,3,27,0.00
2013-12-31,56,47,33,25,21,13,50,35,25,30.08,29.82,28,5,28,0.00
2014-1-1,40,33,24,30,24,20,89,72,50,30.33,29.79,19,2,19,0.00
2014-1-2,44,30,19,26,20,14,85,69,35,30.41,30.11,11,1,12,0.00